sensor_id;sensor_type;location;lat;lon;timestamp;P1;durP1;ratioP1;P2;durP2;ratioP2
16792;SDS011;8513;42.662;23.350;2023-04-25T00:00:29;3.78;;;3.47;;
16792;SDS011;8513;42.662;23.350;2023-04-25T00:02:54;3.80;;;3.50;;
16792;SDS011;8513;42.662;23.350;2023-04-25T00:05:24;4.60;;;4.20;;
16792;SDS011;8513;42.662;23.350;2023-04-25T00:07:51;4.20;;;3.80;;
16792;SDS011;8513;42.662;23.350;2023-04-25T00:10:16;4.47;;;3.90;;
16792;SDS011;8513;42.662;23.350;2023-04-25T00:12:41;4.68;;;4.05;;
16792;SDS011;8513;42.662;23.350;2023-04-25T00:15:07;4.70;;;4.30;;
16792;SDS011;8513;42.662;23.350;2023-04-25T00:17:34;4.65;;;4.28;;
16792;SDS011;8513;42.662;23.350;2023-04-25T00:20:00;5.00;;;4.30;;
16792;SDS011;8513;42.662;23.350;2023-04-25T00:22:29;5.05;;;4.60;;
16792;SDS011;8513;42.662;23.350;2023-04-25T00:24:55;5.57;;;5.07;;
16792;SDS011;8513;42.662;23.350;2023-04-25T00:27:22;4.90;;;4.45;;
16792;SDS011;8513;42.662;23.350;2023-04-25T00:29:47;5.13;;;4.72;;
16792;SDS011;8513;42.662;23.350;2023-04-25T00:32:13;6.13;;;5.63;;
16792;SDS011;8513;42.662;23.350;2023-04-25T00:34:38;5.38;;;4.97;;
16792;SDS011;8513;42.662;23.350;2023-04-25T00:37:03;5.72;;;5.25;;
16792;SDS011;8513;42.662;23.350;2023-04-25T00:39:29;5.38;;;4.97;;
16792;SDS011;8513;42.662;23.350;2023-04-25T00:41:55;5.72;;;5.20;;
16792;SDS011;8513;42.662;23.350;2023-04-25T00:44:21;5.30;;;4.80;;
16792;SDS011;8513;42.662;23.350;2023-04-25T00:46:47;5.07;;;4.68;;
16792;SDS011;8513;42.662;23.350;2023-04-25T00:49:14;5.38;;;4.88;;
16792;SDS011;8513;42.662;23.350;2023-04-25T00:51:40;4.65;;;4.30;;
16792;SDS011;8513;42.662;23.350;2023-04-25T00:54:06;6.75;;;5.55;;
16792;SDS011;8513;42.662;23.350;2023-04-25T00:56:32;5.30;;;4.80;;
16792;SDS011;8513;42.662;23.350;2023-04-25T00:58:58;5.45;;;5.05;;
16792;SDS011;8513;42.662;23.350;2023-04-25T01:01:23;5.93;;;5.35;;
16792;SDS011;8513;42.662;23.350;2023-04-25T01:03:49;5.57;;;5.07;;
16792;SDS011;8513;42.662;23.350;2023-04-25T01:06:16;6.07;;;5.47;;
16792;SDS011;8513;42.662;23.350;2023-04-25T01:08:42;5.60;;;5.05;;
16792;SDS011;8513;42.662;23.350;2023-04-25T01:11:07;5.13;;;4.70;;
16792;SDS011;8513;42.662;23.350;2023-04-25T01:13:33;5.10;;;4.70;;
16792;SDS011;8513;42.662;23.350;2023-04-25T01:16:00;5.03;;;4.63;;
16792;SDS011;8513;42.662;23.350;2023-04-25T01:18:26;5.13;;;4.72;;
16792;SDS011;8513;42.662;23.350;2023-04-25T01:20:52;5.13;;;4.72;;
16792;SDS011;8513;42.662;23.350;2023-04-25T01:23:19;5.47;;;4.97;;
16792;SDS011;8513;42.662;23.350;2023-04-25T01:25:46;4.95;;;4.55;;
16792;SDS011;8513;42.662;23.350;2023-04-25T01:28:12;5.28;;;4.78;;
16792;SDS011;8513;42.662;23.350;2023-04-25T01:30:38;5.38;;;4.90;;
16792;SDS011;8513;42.662;23.350;2023-04-25T01:33:04;5.03;;;4.60;;
16792;SDS011;8513;42.662;23.350;2023-04-25T01:35:30;5.20;;;4.75;;
16792;SDS011;8513;42.662;23.350;2023-04-25T01:37:57;4.60;;;4.18;;
16792;SDS011;8513;42.662;23.350;2023-04-25T01:40:22;4.88;;;4.32;;
16792;SDS011;8513;42.662;23.350;2023-04-25T01:42:49;5.15;;;4.75;;
16792;SDS011;8513;42.662;23.350;2023-04-25T01:45:15;5.45;;;4.95;;
16792;SDS011;8513;42.662;23.350;2023-04-25T01:47:41;5.25;;;4.80;;
16792;SDS011;8513;42.662;23.350;2023-04-25T01:50:08;5.32;;;4.93;;
16792;SDS011;8513;42.662;23.350;2023-04-25T01:52:34;4.90;;;4.50;;
16792;SDS011;8513;42.662;23.350;2023-04-25T01:55:01;5.28;;;4.78;;
16792;SDS011;8513;42.662;23.350;2023-04-25T01:57:27;4.22;;;3.92;;
16792;SDS011;8513;42.662;23.350;2023-04-25T01:59:58;5.75;;;5.25;;
16792;SDS011;8513;42.662;23.350;2023-04-25T02:02:26;5.15;;;4.65;;
16792;SDS011;8513;42.662;23.350;2023-04-25T02:04:52;4.95;;;4.57;;
16792;SDS011;8513;42.662;23.350;2023-04-25T02:07:19;5.57;;;5.18;;
16792;SDS011;8513;42.662;23.350;2023-04-25T02:09:44;5.35;;;4.95;;
16792;SDS011;8513;42.662;23.350;2023-04-25T02:12:10;5.80;;;5.30;;
16792;SDS011;8513;42.662;23.350;2023-04-25T02:14:36;5.05;;;4.63;;
16792;SDS011;8513;42.662;23.350;2023-04-25T02:17:01;5.22;;;4.72;;
16792;SDS011;8513;42.662;23.350;2023-04-25T02:19:27;5.32;;;4.82;;
16792;SDS011;8513;42.662;23.350;2023-04-25T02:21:53;6.07;;;5.57;;
16792;SDS011;8513;42.662;23.350;2023-04-25T02:24:21;6.57;;;6.07;;
16792;SDS011;8513;42.662;23.350;2023-04-25T02:26:47;6.57;;;5.97;;
16792;SDS011;8513;42.662;23.350;2023-04-25T02:29:12;6.75;;;6.15;;
16792;SDS011;8513;42.662;23.350;2023-04-25T02:31:40;6.97;;;6.40;;
16792;SDS011;8513;42.662;23.350;2023-04-25T02:34:05;5.93;;;5.45;;
16792;SDS011;8513;42.662;23.350;2023-04-25T02:36:30;7.10;;;6.50;;
16792;SDS011;8513;42.662;23.350;2023-04-25T02:38:59;7.63;;;6.93;;
16792;SDS011;8513;42.662;23.350;2023-04-25T02:41:25;7.35;;;6.70;;
16792;SDS011;8513;42.662;23.350;2023-04-25T02:43:51;7.78;;;7.15;;
16792;SDS011;8513;42.662;23.350;2023-04-25T02:46:17;7.53;;;6.88;;
16792;SDS011;8513;42.662;23.350;2023-04-25T02:48:42;7.45;;;6.85;;
16792;SDS011;8513;42.662;23.350;2023-04-25T02:51:08;7.93;;;7.03;;
16792;SDS011;8513;42.662;23.350;2023-04-25T02:53:34;7.43;;;6.80;;
16792;SDS011;8513;42.662;23.350;2023-04-25T02:55:59;7.82;;;7.13;;
16792;SDS011;8513;42.662;23.350;2023-04-25T02:58:25;7.72;;;7.05;;
16792;SDS011;8513;42.662;23.350;2023-04-25T03:00:50;6.55;;;6.05;;
16792;SDS011;8513;42.662;23.350;2023-04-25T03:03:15;6.30;;;5.80;;
16792;SDS011;8513;42.662;23.350;2023-04-25T03:05:43;6.38;;;5.88;;
16792;SDS011;8513;42.662;23.350;2023-04-25T03:08:08;6.57;;;6.00;;
16792;SDS011;8513;42.662;23.350;2023-04-25T03:10:34;7.45;;;6.75;;
16792;SDS011;8513;42.662;23.350;2023-04-25T03:12:59;6.80;;;6.30;;
16792;SDS011;8513;42.662;23.350;2023-04-25T03:15:25;6.05;;;5.55;;
16792;SDS011;8513;42.662;23.350;2023-04-25T03:17:50;7.30;;;6.80;;
16792;SDS011;8513;42.662;23.350;2023-04-25T03:20:16;6.07;;;5.47;;
16792;SDS011;8513;42.662;23.350;2023-04-25T03:22:41;7.38;;;6.68;;
16792;SDS011;8513;42.662;23.350;2023-04-25T03:25:07;7.70;;;7.07;;
16792;SDS011;8513;42.662;23.350;2023-04-25T03:27:33;7.00;;;6.40;;
16792;SDS011;8513;42.662;23.350;2023-04-25T03:29:58;7.35;;;6.75;;
16792;SDS011;8513;42.662;23.350;2023-04-25T03:32:24;7.35;;;6.72;;
16792;SDS011;8513;42.662;23.350;2023-04-25T03:34:49;6.70;;;6.20;;
16792;SDS011;8513;42.662;23.350;2023-04-25T03:37:15;8.40;;;7.60;;
16792;SDS011;8513;42.662;23.350;2023-04-25T03:39:40;7.47;;;6.78;;
16792;SDS011;8513;42.662;23.350;2023-04-25T03:42:05;7.93;;;7.22;;
16792;SDS011;8513;42.662;23.350;2023-04-25T03:44:31;7.88;;;7.07;;
16792;SDS011;8513;42.662;23.350;2023-04-25T03:46:56;8.00;;;7.30;;
16792;SDS011;8513;42.662;23.350;2023-04-25T03:49:22;8.77;;;6.90;;
16792;SDS011;8513;42.662;23.350;2023-04-25T03:51:47;7.53;;;6.82;;
16792;SDS011;8513;42.662;23.350;2023-04-25T03:54:13;8.90;;;8.02;;
16792;SDS011;8513;42.662;23.350;2023-04-25T03:56:38;8.45;;;7.65;;
16792;SDS011;8513;42.662;23.350;2023-04-25T03:59:04;8.02;;;7.30;;
16792;SDS011;8513;42.662;23.350;2023-04-25T04:01:29;8.55;;;7.75;;
16792;SDS011;8513;42.662;23.350;2023-04-25T04:03:55;8.30;;;7.45;;
16792;SDS011;8513;42.662;23.350;2023-04-25T04:06:20;8.85;;;7.95;;
16792;SDS011;8513;42.662;23.350;2023-04-25T04:08:46;7.63;;;7.03;;
16792;SDS011;8513;42.662;23.350;2023-04-25T04:11:11;8.77;;;8.07;;
16792;SDS011;8513;42.662;23.350;2023-04-25T04:13:37;8.25;;;7.45;;
16792;SDS011;8513;42.662;23.350;2023-04-25T04:16:02;7.70;;;7.10;;
16792;SDS011;8513;42.662;23.350;2023-04-25T04:18:29;8.10;;;7.40;;
16792;SDS011;8513;42.662;23.350;2023-04-25T04:20:55;7.65;;;6.97;;
16792;SDS011;8513;42.662;23.350;2023-04-25T04:23:22;8.15;;;7.45;;
16792;SDS011;8513;42.662;23.350;2023-04-25T04:25:48;8.65;;;7.90;;
16792;SDS011;8513;42.662;23.350;2023-04-25T04:28:14;7.82;;;7.13;;
16792;SDS011;8513;42.662;23.350;2023-04-25T04:30:41;7.93;;;7.32;;
16792;SDS011;8513;42.662;23.350;2023-04-25T04:33:07;8.63;;;7.78;;
16792;SDS011;8513;42.662;23.350;2023-04-25T04:35:34;8.55;;;7.65;;
16792;SDS011;8513;42.662;23.350;2023-04-25T04:37:59;7.75;;;7.15;;
16792;SDS011;8513;42.662;23.350;2023-04-25T04:40:25;7.88;;;7.18;;
16792;SDS011;8513;42.662;23.350;2023-04-25T04:42:51;7.07;;;6.47;;
16792;SDS011;8513;42.662;23.350;2023-04-25T04:45:18;6.78;;;6.28;;
16792;SDS011;8513;42.662;23.350;2023-04-25T04:47:43;6.47;;;5.97;;
16792;SDS011;8513;42.662;23.350;2023-04-25T04:50:10;6.68;;;6.00;;
16792;SDS011;8513;42.662;23.350;2023-04-25T04:52:36;6.57;;;6.07;;
16792;SDS011;8513;42.662;23.350;2023-04-25T04:55:04;7.15;;;6.55;;
16792;SDS011;8513;42.662;23.350;2023-04-25T04:57:30;7.45;;;6.70;;
16792;SDS011;8513;42.662;23.350;2023-04-25T04:59:57;9.23;;;6.82;;
16792;SDS011;8513;42.662;23.350;2023-04-25T05:02:23;8.23;;;6.90;;
16792;SDS011;8513;42.662;23.350;2023-04-25T05:04:49;7.28;;;6.68;;
16792;SDS011;8513;42.662;23.350;2023-04-25T05:07:16;8.32;;;7.28;;
16792;SDS011;8513;42.662;23.350;2023-04-25T05:09:42;7.90;;;7.20;;
16792;SDS011;8513;42.662;23.350;2023-04-25T05:12:07;8.90;;;8.00;;
16792;SDS011;8513;42.662;23.350;2023-04-25T05:14:32;8.68;;;7.68;;
16792;SDS011;8513;42.662;23.350;2023-04-25T05:16:58;8.43;;;7.80;;
16792;SDS011;8513;42.662;23.350;2023-04-25T05:19:24;8.57;;;7.85;;
16792;SDS011;8513;42.662;23.350;2023-04-25T05:21:49;9.07;;;8.27;;
16792;SDS011;8513;42.662;23.350;2023-04-25T05:24:15;9.85;;;8.95;;
16792;SDS011;8513;42.662;23.350;2023-04-25T05:26:41;10.73;;;9.80;;
16792;SDS011;8513;42.662;23.350;2023-04-25T05:29:06;11.57;;;10.48;;
16792;SDS011;8513;42.662;23.350;2023-04-25T05:31:32;10.90;;;10.00;;
16792;SDS011;8513;42.662;23.350;2023-04-25T05:33:58;11.57;;;10.57;;
16792;SDS011;8513;42.662;23.350;2023-04-25T05:36:23;10.73;;;9.70;;
16792;SDS011;8513;42.662;23.350;2023-04-25T05:38:49;10.63;;;9.73;;
16792;SDS011;8513;42.662;23.350;2023-04-25T05:41:14;11.60;;;10.45;;
16792;SDS011;8513;42.662;23.350;2023-04-25T05:43:40;8.85;;;8.02;;
16792;SDS011;8513;42.662;23.350;2023-04-25T05:46:10;9.20;;;8.30;;
16792;SDS011;8513;42.662;23.350;2023-04-25T05:48:37;10.70;;;9.70;;
16792;SDS011;8513;42.662;23.350;2023-04-25T05:51:02;11.50;;;9.60;;
16792;SDS011;8513;42.662;23.350;2023-04-25T05:53:28;10.27;;;9.27;;
16792;SDS011;8513;42.662;23.350;2023-04-25T05:55:53;12.23;;;11.00;;
16792;SDS011;8513;42.662;23.350;2023-04-25T05:58:19;11.50;;;10.27;;
16792;SDS011;8513;42.662;23.350;2023-04-25T06:00:45;9.82;;;8.93;;
16792;SDS011;8513;42.662;23.350;2023-04-25T06:03:11;10.88;;;9.40;;
16792;SDS011;8513;42.662;23.350;2023-04-25T06:05:40;10.40;;;9.27;;
16792;SDS011;8513;42.662;23.350;2023-04-25T06:08:07;11.30;;;9.25;;
16792;SDS011;8513;42.662;23.350;2023-04-25T06:10:32;11.43;;;8.85;;
16792;SDS011;8513;42.662;23.350;2023-04-25T06:12:58;10.70;;;8.32;;
16792;SDS011;8513;42.662;23.350;2023-04-25T06:15:23;8.07;;;7.20;;
16792;SDS011;8513;42.662;23.350;2023-04-25T06:17:49;7.60;;;5.00;;
16792;SDS011;8513;42.662;23.350;2023-04-25T06:20:14;6.30;;;5.70;;
16792;SDS011;8513;42.662;23.350;2023-04-25T06:22:40;8.57;;;5.75;;
16792;SDS011;8513;42.662;23.350;2023-04-25T06:25:05;8.27;;;6.82;;
16792;SDS011;8513;42.662;23.350;2023-04-25T06:27:32;8.35;;;7.00;;
16792;SDS011;8513;42.662;23.350;2023-04-25T06:29:58;7.72;;;7.03;;
16792;SDS011;8513;42.662;23.350;2023-04-25T06:32:23;8.25;;;7.25;;
16792;SDS011;8513;42.662;23.350;2023-04-25T06:34:49;7.97;;;7.15;;
16792;SDS011;8513;42.662;23.350;2023-04-25T06:37:15;8.57;;;7.13;;
16792;SDS011;8513;42.662;23.350;2023-04-25T06:39:41;8.38;;;7.50;;
16792;SDS011;8513;42.662;23.350;2023-04-25T06:42:06;8.35;;;7.55;;
16792;SDS011;8513;42.662;23.350;2023-04-25T06:44:31;7.25;;;6.60;;
16792;SDS011;8513;42.662;23.350;2023-04-25T06:46:57;8.88;;;8.02;;
16792;SDS011;8513;42.662;23.350;2023-04-25T06:49:22;11.40;;;8.57;;
16792;SDS011;8513;42.662;23.350;2023-04-25T06:51:47;8.27;;;7.43;;
16792;SDS011;8513;42.662;23.350;2023-04-25T06:54:13;7.75;;;7.00;;
16792;SDS011;8513;42.662;23.350;2023-04-25T06:56:38;9.40;;;6.88;;
16792;SDS011;8513;42.662;23.350;2023-04-25T06:59:04;8.68;;;6.60;;
16792;SDS011;8513;42.662;23.350;2023-04-25T07:01:29;8.02;;;7.20;;
16792;SDS011;8513;42.662;23.350;2023-04-25T07:03:55;9.20;;;8.00;;
16792;SDS011;8513;42.662;23.350;2023-04-25T07:06:20;8.90;;;7.45;;
16792;SDS011;8513;42.662;23.350;2023-04-25T07:08:46;8.23;;;7.35;;
16792;SDS011;8513;42.662;23.350;2023-04-25T07:11:11;6.95;;;6.30;;
16792;SDS011;8513;42.662;23.350;2023-04-25T07:13:37;7.32;;;5.93;;
16792;SDS011;8513;42.662;23.350;2023-04-25T07:16:02;5.15;;;4.65;;
16792;SDS011;8513;42.662;23.350;2023-04-25T07:18:28;6.60;;;4.93;;
16792;SDS011;8513;42.662;23.350;2023-04-25T07:20:53;4.70;;;4.28;;
16792;SDS011;8513;42.662;23.350;2023-04-25T07:23:19;4.30;;;3.90;;
16792;SDS011;8513;42.662;23.350;2023-04-25T07:25:45;4.57;;;4.18;;
16792;SDS011;8513;42.662;23.350;2023-04-25T07:28:10;5.95;;;4.93;;
16792;SDS011;8513;42.662;23.350;2023-04-25T07:30:36;7.07;;;5.53;;
16792;SDS011;8513;42.662;23.350;2023-04-25T07:33:01;7.03;;;4.60;;
16792;SDS011;8513;42.662;23.350;2023-04-25T07:35:27;7.82;;;5.50;;
16792;SDS011;8513;42.662;23.350;2023-04-25T07:37:52;6.95;;;4.70;;
16792;SDS011;8513;42.662;23.350;2023-04-25T07:40:18;5.03;;;4.53;;
16792;SDS011;8513;42.662;23.350;2023-04-25T07:42:43;6.55;;;5.03;;
16792;SDS011;8513;42.662;23.350;2023-04-25T07:45:09;5.05;;;4.53;;
16792;SDS011;8513;42.662;23.350;2023-04-25T07:47:35;6.60;;;5.32;;
16792;SDS011;8513;42.662;23.350;2023-04-25T07:50:01;8.25;;;5.10;;
16792;SDS011;8513;42.662;23.350;2023-04-25T07:52:27;6.00;;;5.38;;
16792;SDS011;8513;42.662;23.350;2023-04-25T07:54:53;9.98;;;5.10;;
16792;SDS011;8513;42.662;23.350;2023-04-25T07:57:19;8.80;;;5.53;;
16792;SDS011;8513;42.662;23.350;2023-04-25T07:59:45;9.20;;;5.30;;
16792;SDS011;8513;42.662;23.350;2023-04-25T08:02:10;5.63;;;4.85;;
16792;SDS011;8513;42.662;23.350;2023-04-25T08:04:36;10.60;;;5.13;;
16792;SDS011;8513;42.662;23.350;2023-04-25T08:07:01;7.95;;;5.15;;
16792;SDS011;8513;42.662;23.350;2023-04-25T08:09:27;7.28;;;5.47;;
16792;SDS011;8513;42.662;23.350;2023-04-25T08:11:52;9.15;;;6.90;;
16792;SDS011;8513;42.662;23.350;2023-04-25T08:14:18;8.80;;;6.07;;
16792;SDS011;8513;42.662;23.350;2023-04-25T08:16:43;5.07;;;4.68;;
16792;SDS011;8513;42.662;23.350;2023-04-25T08:19:09;6.70;;;4.88;;
16792;SDS011;8513;42.662;23.350;2023-04-25T08:21:36;5.28;;;4.75;;
16792;SDS011;8513;42.662;23.350;2023-04-25T08:24:01;4.43;;;3.58;;
16792;SDS011;8513;42.662;23.350;2023-04-25T08:26:27;5.15;;;4.05;;
16792;SDS011;8513;42.662;23.350;2023-04-25T08:28:53;5.28;;;4.13;;
16792;SDS011;8513;42.662;23.350;2023-04-25T08:31:18;5.38;;;3.95;;
16792;SDS011;8513;42.662;23.350;2023-04-25T08:33:44;6.65;;;3.92;;
16792;SDS011;8513;42.662;23.350;2023-04-25T08:36:10;5.10;;;3.88;;
16792;SDS011;8513;42.662;23.350;2023-04-25T08:38:35;7.95;;;4.43;;
16792;SDS011;8513;42.662;23.350;2023-04-25T08:41:01;7.40;;;4.40;;
16792;SDS011;8513;42.662;23.350;2023-04-25T08:43:27;4.38;;;3.90;;
16792;SDS011;8513;42.662;23.350;2023-04-25T08:45:54;3.85;;;3.55;;
16792;SDS011;8513;42.662;23.350;2023-04-25T08:48:28;6.35;;;3.53;;
16792;SDS011;8513;42.662;23.350;2023-04-25T08:50:59;4.55;;;3.60;;
16792;SDS011;8513;42.662;23.350;2023-04-25T08:53:29;5.07;;;2.80;;
16792;SDS011;8513;42.662;23.350;2023-04-25T08:55:56;3.42;;;3.13;;
16792;SDS011;8513;42.662;23.350;2023-04-25T08:58:23;5.38;;;4.80;;
16792;SDS011;8513;42.662;23.350;2023-04-25T09:00:49;7.13;;;5.55;;
16792;SDS011;8513;42.662;23.350;2023-04-25T09:03:16;5.82;;;5.32;;
16792;SDS011;8513;42.662;23.350;2023-04-25T09:05:44;7.38;;;6.45;;
16792;SDS011;8513;42.662;23.350;2023-04-25T09:08:10;9.10;;;7.25;;
16792;SDS011;8513;42.662;23.350;2023-04-25T09:10:36;7.88;;;7.07;;
16792;SDS011;8513;42.662;23.350;2023-04-25T09:13:06;10.77;;;7.65;;
16792;SDS011;8513;42.662;23.350;2023-04-25T09:18:12;8.30;;;6.75;;
16792;SDS011;8513;42.662;23.350;2023-04-25T09:20:43;6.38;;;5.15;;
16792;SDS011;8513;42.662;23.350;2023-04-25T09:23:09;6.15;;;5.32;;
16792;SDS011;8513;42.662;23.350;2023-04-25T09:25:35;6.47;;;5.88;;
16792;SDS011;8513;42.662;23.350;2023-04-25T09:28:05;6.90;;;6.20;;
16792;SDS011;8513;42.662;23.350;2023-04-25T09:30:32;12.40;;;6.97;;
16792;SDS011;8513;42.662;23.350;2023-04-25T09:33:08;8.40;;;6.18;;
16792;SDS011;8513;42.662;23.350;2023-04-25T09:35:37;7.82;;;5.75;;
16792;SDS011;8513;42.662;23.350;2023-04-25T09:38:10;6.00;;;5.40;;
16792;SDS011;8513;42.662;23.350;2023-04-25T09:40:43;7.80;;;5.30;;
16792;SDS011;8513;42.662;23.350;2023-04-25T09:43:19;6.40;;;5.80;;
16792;SDS011;8513;42.662;23.350;2023-04-25T09:45:46;7.22;;;6.35;;
16792;SDS011;8513;42.662;23.350;2023-04-25T09:48:16;7.65;;;6.85;;
16792;SDS011;8513;42.662;23.350;2023-04-25T09:50:45;10.70;;;7.75;;
16792;SDS011;8513;42.662;23.350;2023-04-25T09:53:28;9.90;;;7.07;;
16792;SDS011;8513;42.662;23.350;2023-04-25T09:55:54;8.90;;;6.50;;
16792;SDS011;8513;42.662;23.350;2023-04-25T09:58:21;10.20;;;6.32;;
16792;SDS011;8513;42.662;23.350;2023-04-25T10:00:49;6.35;;;5.75;;
16792;SDS011;8513;42.662;23.350;2023-04-25T10:03:17;6.63;;;5.43;;
16792;SDS011;8513;42.662;23.350;2023-04-25T10:05:44;8.05;;;6.00;;
16792;SDS011;8513;42.662;23.350;2023-04-25T10:08:14;7.88;;;5.63;;
16792;SDS011;8513;42.662;23.350;2023-04-25T10:10:41;7.10;;;6.28;;
16792;SDS011;8513;42.662;23.350;2023-04-25T10:13:07;8.00;;;6.47;;
16792;SDS011;8513;42.662;23.350;2023-04-25T10:15:37;7.78;;;6.72;;
16792;SDS011;8513;42.662;23.350;2023-04-25T10:18:02;10.88;;;7.65;;
16792;SDS011;8513;42.662;23.350;2023-04-25T10:20:30;5.80;;;5.30;;
16792;SDS011;8513;42.662;23.350;2023-04-25T10:22:57;6.05;;;5.30;;
16792;SDS011;8513;42.662;23.350;2023-04-25T10:25:30;3.40;;;1.58;;
16792;SDS011;8513;42.662;23.350;2023-04-25T10:27:55;2.13;;;1.30;;
16792;SDS011;8513;42.662;23.350;2023-04-25T10:30:21;4.22;;;3.83;;
16792;SDS011;8513;42.662;23.350;2023-04-25T10:32:46;8.18;;;7.38;;
16792;SDS011;8513;42.662;23.350;2023-04-25T10:35:19;1.90;;;1.80;;
16792;SDS011;8513;42.662;23.350;2023-04-25T10:38:05;1.50;;;0.90;;
16792;SDS011;8513;42.662;23.350;2023-04-25T10:40:35;1.33;;;0.90;;
16792;SDS011;8513;42.662;23.350;2023-04-25T10:46:01;1.63;;;1.02;;
16792;SDS011;8513;42.662;23.350;2023-04-25T10:48:37;1.52;;;1.20;;
16792;SDS011;8513;42.662;23.350;2023-04-25T10:51:12;3.45;;;1.50;;
16792;SDS011;8513;42.662;23.350;2023-04-25T10:54:04;1.67;;;1.58;;
16792;SDS011;8513;42.662;23.350;2023-04-25T10:56:31;2.58;;;1.67;;
16792;SDS011;8513;42.662;23.350;2023-04-25T10:59:05;2.78;;;1.20;;
16792;SDS011;8513;42.662;23.350;2023-04-25T11:04:29;2.53;;;1.45;;
16792;SDS011;8513;42.662;23.350;2023-04-25T11:09:56;3.28;;;1.20;;
16792;SDS011;8513;42.662;23.350;2023-04-25T11:12:21;2.10;;;1.17;;
16792;SDS011;8513;42.662;23.350;2023-04-25T11:14:49;2.88;;;1.30;;
16792;SDS011;8513;42.662;23.350;2023-04-25T11:17:15;3.47;;;1.50;;
16792;SDS011;8513;42.662;23.350;2023-04-25T11:19:40;4.45;;;1.60;;
16792;SDS011;8513;42.662;23.350;2023-04-25T11:22:09;2.75;;;1.70;;
16792;SDS011;8513;42.662;23.350;2023-04-25T11:24:35;3.85;;;1.10;;
16792;SDS011;8513;42.662;23.350;2023-04-25T11:27:04;5.68;;;1.65;;
16792;SDS011;8513;42.662;23.350;2023-04-25T11:29:33;1.92;;;1.70;;
16792;SDS011;8513;42.662;23.350;2023-04-25T11:31:59;1.98;;;1.80;;
16792;SDS011;8513;42.662;23.350;2023-04-25T11:34:26;3.13;;;2.40;;
16792;SDS011;8513;42.662;23.350;2023-04-25T11:36:55;7.05;;;2.22;;
16792;SDS011;8513;42.662;23.350;2023-04-25T11:39:21;3.75;;;1.95;;
16792;SDS011;8513;42.662;23.350;2023-04-25T11:41:49;3.80;;;1.65;;
16792;SDS011;8513;42.662;23.350;2023-04-25T11:44:15;3.50;;;2.13;;
16792;SDS011;8513;42.662;23.350;2023-04-25T11:46:42;6.05;;;2.00;;
16792;SDS011;8513;42.662;23.350;2023-04-25T11:49:07;2.10;;;1.50;;
16792;SDS011;8513;42.662;23.350;2023-04-25T11:54:05;1.70;;;0.95;;
16792;SDS011;8513;42.662;23.350;2023-04-25T11:56:31;1.30;;;0.90;;
16792;SDS011;8513;42.662;23.350;2023-04-25T11:58:58;1.92;;;1.52;;
16792;SDS011;8513;42.662;23.350;2023-04-25T12:01:32;1.92;;;1.27;;
16792;SDS011;8513;42.662;23.350;2023-04-25T12:06:38;1.83;;;1.08;;
16792;SDS011;8513;42.662;23.350;2023-04-25T12:09:06;1.10;;;0.90;;
16792;SDS011;8513;42.662;23.350;2023-04-25T12:11:40;2.35;;;1.33;;
16792;SDS011;8513;42.662;23.350;2023-04-25T12:14:06;2.05;;;1.30;;
16792;SDS011;8513;42.662;23.350;2023-04-25T12:16:44;1.20;;;1.10;;
16792;SDS011;8513;42.662;23.350;2023-04-25T12:19:14;1.50;;;1.23;;
16792;SDS011;8513;42.662;23.350;2023-04-25T12:21:41;2.60;;;1.60;;
16792;SDS011;8513;42.662;23.350;2023-04-25T12:24:13;4.35;;;3.30;;
16792;SDS011;8513;42.662;23.350;2023-04-25T12:29:16;1.95;;;1.80;;
16792;SDS011;8513;42.662;23.350;2023-04-25T12:31:45;2.45;;;1.00;;
16792;SDS011;8513;42.662;23.350;2023-04-25T12:34:10;2.22;;;1.30;;
16792;SDS011;8513;42.662;23.350;2023-04-25T12:36:36;1.23;;;0.80;;
16792;SDS011;8513;42.662;23.350;2023-04-25T12:39:02;3.47;;;1.20;;
16792;SDS011;8513;42.662;23.350;2023-04-25T12:41:29;1.50;;;1.20;;
16792;SDS011;8513;42.662;23.350;2023-04-25T12:43:55;1.75;;;0.95;;
16792;SDS011;8513;42.662;23.350;2023-04-25T12:46:21;1.10;;;1.00;;
16792;SDS011;8513;42.662;23.350;2023-04-25T12:48:47;3.72;;;1.23;;
16792;SDS011;8513;42.662;23.350;2023-04-25T12:51:13;3.70;;;1.38;;
16792;SDS011;8513;42.662;23.350;2023-04-25T12:53:38;3.08;;;1.30;;
16792;SDS011;8513;42.662;23.350;2023-04-25T12:56:06;3.30;;;1.20;;
16792;SDS011;8513;42.662;23.350;2023-04-25T12:58:32;4.45;;;1.30;;
16792;SDS011;8513;42.662;23.350;2023-04-25T13:00:58;1.95;;;1.10;;
16792;SDS011;8513;42.662;23.350;2023-04-25T13:03:24;2.83;;;1.20;;
16792;SDS011;8513;42.662;23.350;2023-04-25T13:05:50;2.25;;;1.38;;
16792;SDS011;8513;42.662;23.350;2023-04-25T13:08:17;2.95;;;1.35;;
16792;SDS011;8513;42.662;23.350;2023-04-25T13:10:45;2.45;;;1.10;;
16792;SDS011;8513;42.662;23.350;2023-04-25T13:13:12;1.45;;;1.00;;
16792;SDS011;8513;42.662;23.350;2023-04-25T13:15:38;2.78;;;1.20;;
16792;SDS011;8513;42.662;23.350;2023-04-25T13:18:03;3.63;;;1.38;;
16792;SDS011;8513;42.662;23.350;2023-04-25T13:20:30;2.53;;;1.30;;
16792;SDS011;8513;42.662;23.350;2023-04-25T13:22:56;1.65;;;1.45;;
16792;SDS011;8513;42.662;23.350;2023-04-25T13:25:22;2.58;;;1.50;;
16792;SDS011;8513;42.662;23.350;2023-04-25T13:27:47;7.45;;;3.75;;
16792;SDS011;8513;42.662;23.350;2023-04-25T13:30:13;4.55;;;3.00;;
16792;SDS011;8513;42.662;23.350;2023-04-25T13:32:39;3.70;;;2.60;;
16792;SDS011;8513;42.662;23.350;2023-04-25T13:35:05;3.03;;;2.30;;
16792;SDS011;8513;42.662;23.350;2023-04-25T13:37:35;3.10;;;2.28;;
16792;SDS011;8513;42.662;23.350;2023-04-25T13:40:01;4.07;;;2.08;;
16792;SDS011;8513;42.662;23.350;2023-04-25T13:42:30;2.45;;;2.00;;
16792;SDS011;8513;42.662;23.350;2023-04-25T13:44:56;3.45;;;2.20;;
16792;SDS011;8513;42.662;23.350;2023-04-25T13:47:21;5.40;;;2.17;;
16792;SDS011;8513;42.662;23.350;2023-04-25T13:49:48;3.20;;;2.45;;
16792;SDS011;8513;42.662;23.350;2023-04-25T13:52:13;2.28;;;1.75;;
16792;SDS011;8513;42.662;23.350;2023-04-25T13:54:39;2.95;;;1.77;;
16792;SDS011;8513;42.662;23.350;2023-04-25T13:57:04;4.00;;;1.58;;
16792;SDS011;8513;42.662;23.350;2023-04-25T13:59:30;3.58;;;2.10;;
16792;SDS011;8513;42.662;23.350;2023-04-25T14:01:56;2.03;;;1.77;;
16792;SDS011;8513;42.662;23.350;2023-04-25T14:04:21;1.92;;;1.40;;
16792;SDS011;8513;42.662;23.350;2023-04-25T14:06:47;1.30;;;1.20;;
16792;SDS011;8513;42.662;23.350;2023-04-25T14:09:12;1.85;;;1.50;;
16792;SDS011;8513;42.662;23.350;2023-04-25T14:11:38;2.60;;;1.40;;
16792;SDS011;8513;42.662;23.350;2023-04-25T14:14:04;1.75;;;1.10;;
16792;SDS011;8513;42.662;23.350;2023-04-25T14:16:30;3.00;;;1.42;;
16792;SDS011;8513;42.662;23.350;2023-04-25T14:18:57;2.70;;;1.75;;
16792;SDS011;8513;42.662;23.350;2023-04-25T14:21:23;4.60;;;4.20;;
16792;SDS011;8513;42.662;23.350;2023-04-25T14:23:50;1.45;;;1.35;;
16792;SDS011;8513;42.662;23.350;2023-04-25T14:26:15;1.40;;;1.30;;
16792;SDS011;8513;42.662;23.350;2023-04-25T14:28:41;0.85;;;0.85;;
16792;SDS011;8513;42.662;23.350;2023-04-25T14:31:07;2.13;;;1.48;;
16792;SDS011;8513;42.662;23.350;2023-04-25T14:33:32;1.33;;;1.15;;
16792;SDS011;8513;42.662;23.350;2023-04-25T14:35:58;0.98;;;0.88;;
16792;SDS011;8513;42.662;23.350;2023-04-25T14:38:23;1.65;;;1.48;;
16792;SDS011;8513;42.662;23.350;2023-04-25T14:40:50;1.17;;;1.08;;
16792;SDS011;8513;42.662;23.350;2023-04-25T14:43:16;1.63;;;1.27;;
16792;SDS011;8513;42.662;23.350;2023-04-25T14:45:41;1.80;;;1.40;;
16792;SDS011;8513;42.662;23.350;2023-04-25T14:48:07;1.60;;;1.33;;
16792;SDS011;8513;42.662;23.350;2023-04-25T14:50:32;1.33;;;1.23;;
16792;SDS011;8513;42.662;23.350;2023-04-25T14:52:58;2.03;;;1.65;;
16792;SDS011;8513;42.662;23.350;2023-04-25T14:55:25;2.08;;;1.27;;
16792;SDS011;8513;42.662;23.350;2023-04-25T14:57:52;1.38;;;1.27;;
16792;SDS011;8513;42.662;23.350;2023-04-25T15:00:19;1.45;;;1.05;;